Time;durP1;ratioP1;P1;durP2;ratioP2;P2;SDS_P1;SDS_P2;PMS_P1;PMS_P2;Temp;Humidity;BMP_temperature;BMP_pressure;BME280_temperature;BME280_humidity;BME280_pressure;Samples;Min_cycle;Max_cycle;Signal;HPM_P1;HPM_P2
2021/12/25 00:01:16;;;;;;;3.55;1.65;;;-0.90;99.90;;;;;;5042555;28;20053;-77
2021/12/25 00:03:42;;;;;;;4.57;1.40;;;-0.90;99.90;;;;;;5063977;28;20118;-77
2021/12/25 00:06:08;;;;;;;4.18;1.40;;;-0.90;99.90;;;;;;5026843;28;20521;-77
2021/12/25 00:08:34;;;;;;;3.28;1.25;;;-0.90;99.90;;;;;;5053700;28;20051;-77
2021/12/25 00:11:02;;;;;;;1.23;1.13;;;-0.90;99.90;;;;;;5055834;28;20119;-77
2021/12/25 00:13:28;;;;;;;8.93;1.70;;;-0.90;99.90;;;;;;5034600;28;20049;-77
2021/12/25 00:15:57;;;;;;;1.15;1.05;;;-1.00;99.90;;;;;;5049103;28;20057;-77
2021/12/25 00:18:23;;;;;;;2.95;1.20;;;-0.90;99.90;;;;;;5046133;28;20056;-77
2021/12/25 00:20:50;;;;;;;2.55;0.85;;;-1.00;99.90;;;;;;5031293;28;20116;-77
2021/12/25 00:23:16;;;;;;;2.03;0.90;;;-1.00;99.90;;;;;;5063580;28;20045;-77
2021/12/25 00:25:47;;;;;;;1.23;1.13;;;-1.00;99.90;;;;;;5047269;28;20037;-77
2021/12/25 00:35:57;;;;;;;1.98;0.85;;;-1.20;99.90;;;;;;5048581;28;20052;-77
2021/12/25 00:38:23;;;;;;;2.45;1.10;;;-1.30;99.90;;;;;;5049098;28;20044;-78
2021/12/25 00:40:49;;;;;;;3.00;1.15;;;-1.30;99.90;;;;;;5048076;28;20071;-78
2021/12/25 00:43:14;;;;;;;1.63;1.00;;;-1.40;99.90;;;;;;5062041;28;20074;-78
2021/12/25 00:45:40;;;;;;;5.45;1.77;;;-1.30;99.90;;;;;;5041850;28;20076;-77
2021/12/25 00:48:06;;;;;;;2.63;1.35;;;-1.30;99.90;;;;;;5058542;28;20040;-77
2021/12/25 00:50:33;;;;;;;1.50;1.20;;;-1.30;99.90;;;;;;5035011;28;20041;-77
2021/12/25 00:52:58;;;;;;;3.10;1.10;;;-1.30;99.90;;;;;;5050712;28;20408;-77
2021/12/25 00:55:25;;;;;;;1.83;1.02;;;-1.40;99.90;;;;;;5048943;28;20041;-77
2021/12/25 00:57:52;;;;;;;1.30;1.10;;;-1.50;99.90;;;;;;5082854;28;20041;-77
2021/12/25 01:00:19;;;;;;;4.05;1.25;;;-1.50;99.90;;;;;;5054803;28;20095;-77
2021/12/25 01:02:47;;;;;;;4.32;1.40;;;-1.50;99.90;;;;;;5044329;28;20153;-77
2021/12/25 01:05:15;;;;;;;3.15;0.68;;;-1.50;99.90;;;;;;5032880;28;20041;-77
2021/12/25 01:07:41;;;;;;;2.22;0.88;;;-1.50;99.90;;;;;;5084378;28;20037;-77
2021/12/25 01:10:14;;;;;;;3.58;1.38;;;-1.60;99.90;;;;;;5067481;28;20444;-76
2021/12/25 01:15:21;;;;;;;1.25;1.17;;;-1.60;99.90;;;;;;5080728;28;20051;-77
2021/12/25 01:21:06;;;;;;;5.07;1.50;;;-1.60;99.90;;;;;;5051874;28;20107;-77
2021/12/25 01:26:42;;;;;;;0.70;0.70;;;-1.70;99.90;;;;;;5080481;28;20095;-77
2021/12/25 01:40:19;;;;;;;4.65;1.23;;;-1.90;99.90;;;;;;5083169;28;20037;-77
2021/12/25 01:48:10;;;;;;;1.13;1.05;;;-2.10;99.90;;;;;;5037729;28;20048;-77
2021/12/25 01:50:36;;;;;;;1.77;1.05;;;-2.00;99.90;;;;;;5066612;28;20405;-77
2021/12/25 01:53:02;;;;;;;5.43;1.27;;;-2.10;99.90;;;;;;5052284;28;20040;-76
2021/12/25 01:55:30;;;;;;;0.80;0.80;;;-2.10;99.90;;;;;;5037330;28;20047;-76
2021/12/25 01:57:58;;;;;;;1.10;0.90;;;-2.10;99.90;;;;;;5034911;28;20455;-76
2021/12/25 02:00:33;;;;;;;5.75;1.42;;;-2.20;99.90;;;;;;5083985;28;20047;-77
2021/12/25 02:03:00;;;;;;;2.58;0.95;;;-2.20;99.90;;;;;;5053830;28;20131;-77
2021/12/25 02:05:26;;;;;;;2.17;1.10;;;-2.10;99.90;;;;;;5033681;28;20101;-76
2021/12/25 02:07:51;;;;;;;1.88;0.95;;;-2.20;99.90;;;;;;5034504;28;20044;-76
2021/12/25 02:10:18;;;;;;;2.25;1.25;;;-2.20;99.90;;;;;;5066793;28;20073;-77
2021/12/25 02:12:46;;;;;;;6.22;1.40;;;-2.20;99.90;;;;;;5045859;28;20071;-76
2021/12/25 02:15:18;;;;;;;2.25;1.30;;;-2.30;99.90;;;;;;5046565;28;20964;-76
2021/12/25 02:18:07;;;;;;;2.20;1.33;;;-2.30;99.90;;;;;;5047597;28;20436;-77
2021/12/25 02:20:40;;;;;;;2.13;1.30;;;-2.30;99.90;;;;;;5065844;28;20040;-76
2021/12/25 02:23:19;;;;;;;1.02;0.90;;;-2.30;99.90;;;;;;5030986;28;20033;-76
2021/12/25 02:25:46;;;;;;;2.22;1.45;;;-2.40;99.90;;;;;;5056720;28;20080;-76
2021/12/25 02:28:14;;;;;;;1.55;1.10;;;-2.40;99.90;;;;;;5047598;28;20123;-76
2021/12/25 02:30:42;;;;;;;2.30;1.17;;;-2.40;99.90;;;;;;5052064;28;20408;-76
2021/12/25 02:33:08;;;;;;;1.08;0.80;;;-2.40;99.90;;;;;;5082889;28;20110;-76
2021/12/25 02:35:34;;;;;;;1.85;1.30;;;-2.50;99.90;;;;;;5066387;28;20041;-76
2021/12/25 02:37:59;;;;;;;4.65;1.27;;;-2.50;99.90;;;;;;5048293;28;20374;-76
2021/12/25 02:40:26;;;;;;;5.63;1.15;;;-2.50;99.90;;;;;;5051866;28;20044;-76
2021/12/25 02:42:52;;;;;;;0.80;0.80;;;-2.60;99.90;;;;;;5060595;28;20459;-76
2021/12/25 02:45:21;;;;;;;0.50;0.50;;;-2.70;99.90;;;;;;5051681;28;20401;-76
2021/12/25 02:47:50;;;;;;;1.48;1.02;;;-2.60;99.90;;;;;;5037865;28;20040;-76
2021/12/25 02:50:28;;;;;;;1.50;1.13;;;-2.70;99.90;;;;;;5083334;28;20045;-76
2021/12/25 02:52:55;;;;;;;0.70;0.70;;;-2.70;99.90;;;;;;5067436;28;20033;-76
2021/12/25 02:55:21;;;;;;;5.55;1.30;;;-2.70;99.90;;;;;;5067242;28;20381;-76
2021/12/25 02:57:51;;;;;;;2.50;1.20;;;-2.70;99.90;;;;;;5073002;28;20457;-76
2021/12/25 03:00:29;;;;;;;1.00;1.00;;;-2.70;99.90;;;;;;5057235;28;20079;-76
2021/12/25 03:02:56;;;;;;;3.25;1.48;;;-2.80;99.90;;;;;;5031678;28;20076;-76
2021/12/25 03:05:22;;;;;;;2.00;1.20;;;-2.80;99.90;;;;;;5041481;28;20139;-76
2021/12/25 03:07:48;;;;;;;9.93;1.20;;;-2.80;99.90;;;;;;5065650;28;20085;-76
2021/12/25 03:10:16;;;;;;;1.23;1.08;;;-2.80;99.90;;;;;;5044166;28;21283;-76
2021/12/25 03:15:30;;;;;;;2.15;1.27;;;-2.80;99.90;;;;;;5046524;28;20862;-76
2021/12/25 03:17:57;;;;;;;0.95;0.90;;;-2.80;99.90;;;;;;5051933;28;20040;-75
2021/12/25 03:20:24;;;;;;;1.30;0.95;;;-2.80;99.90;;;;;;5045843;28;20049;-76
2021/12/25 03:22:50;;;;;;;1.48;1.27;;;-2.90;99.90;;;;;;5033307;28;20036;-75
2021/12/25 03:25:17;;;;;;;4.18;1.48;;;-2.90;99.90;;;;;;5027891;28;20036;-76
2021/12/25 03:27:45;;;;;;;4.10;1.10;;;-2.90;99.90;;;;;;5053479;28;20043;-75
2021/12/25 03:30:15;;;;;;;6.13;1.17;;;-2.90;99.90;;;;;;5055225;28;20041;-75
2021/12/25 03:32:40;;;;;;;1.98;1.00;;;-2.90;99.90;;;;;;5033149;28;20041;-76
2021/12/25 03:35:06;;;;;;;0.98;0.90;;;-2.90;99.90;;;;;;5049215;28;20520;-75
2021/12/25 03:37:32;;;;;;;2.70;1.10;;;-2.90;99.90;;;;;;5064192;28;20479;-75
2021/12/25 03:39:58;;;;;;;1.35;1.25;;;-3.00;99.90;;;;;;5078962;28;20044;-75
2021/12/25 03:42:24;;;;;;;0.93;0.82;;;-3.00;99.90;;;;;;5049077;28;20041;-75
2021/12/25 03:44:49;;;;;;;2.55;1.00;;;-3.00;99.90;;;;;;5052094;28;20028;-75
2021/12/25 03:47:26;;;;;;;0.73;0.73;;;-3.00;99.90;;;;;;5051699;28;20036;-75
2021/12/25 03:58:17;;;;;;;1.48;1.10;;;-3.10;99.90;;;;;;5044482;28;20040;-75
2021/12/25 04:00:45;;;;;;;1.88;0.90;;;-3.00;99.90;;;;;;5064808;28;20041;-75
2021/12/25 04:03:19;;;;;;;0.98;0.88;;;-3.10;99.90;;;;;;5053325;28;20091;-75
2021/12/25 04:05:47;;;;;;;4.05;1.27;;;-3.20;99.90;;;;;;5062896;28;20037;-74
2021/12/25 04:08:15;;;;;;;2.42;1.10;;;-3.20;99.90;;;;;;5082042;28;20049;-75
2021/12/25 04:10:44;;;;;;;1.63;1.20;;;-3.20;99.90;;;;;;5049726;28;20045;-74
2021/12/25 04:13:13;;;;;;;0.73;0.73;;;-3.20;99.90;;;;;;5036145;28;20072;-74
2021/12/25 04:15:39;;;;;;;1.48;1.20;;;-3.20;99.90;;;;;;5043322;28;20103;-74
2021/12/25 04:18:06;;;;;;;1.13;0.77;;;-3.30;99.90;;;;;;5033218;28;20421;-75
2021/12/25 04:20:32;;;;;;;0.70;0.70;;;-3.30;99.90;;;;;;5048785;28;20458;-75
2021/12/25 04:25:31;;;;;;;0.77;0.77;;;-3.40;99.90;;;;;;5052315;28;20044;-75
2021/12/25 04:28:03;;;;;;;0.70;0.70;;;-3.50;99.90;;;;;;5036759;28;20098;-75
2021/12/25 05:03:13;;;;;;;1.13;1.02;;;-3.70;99.90;;;;;;5045731;28;20040;-75
2021/12/25 05:05:39;;;;;;;0.77;0.77;;;-3.80;99.90;;;;;;5025867;28;20080;-75
2021/12/25 05:08:07;;;;;;;1.13;1.02;;;-3.80;99.90;;;;;;5049382;28;20047;-75
2021/12/25 05:10:33;;;;;;;0.77;0.77;;;-3.90;99.90;;;;;;5052252;28;20479;-75
2021/12/25 05:12:58;;;;;;;2.78;0.80;;;-3.90;99.90;;;;;;5051970;28;20072;-75
2021/12/25 05:15:24;;;;;;;0.90;0.85;;;-3.90;99.90;;;;;;5034839;28;20098;-75
2021/12/25 05:17:50;;;;;;;9.18;1.38;;;-3.90;99.90;;;;;;5051326;28;20087;-75
2021/12/25 05:20:16;;;;;;;0.70;0.70;;;-3.90;99.90;;;;;;5056661;28;20053;-75
2021/12/25 05:22:41;;;;;;;5.30;1.00;;;-3.80;99.90;;;;;;5032368;28;20056;-75
2021/12/25 05:25:07;;;;;;;0.75;0.75;;;-3.80;99.90;;;;;;5090304;28;20039;-75
2021/12/25 05:27:33;;;;;;;1.77;1.05;;;-3.80;99.90;;;;;;5050514;28;20408;-75
2021/12/25 05:29:59;;;;;;;4.95;0.88;;;-3.80;99.90;;;;;;5030834;28;20170;-75
2021/12/25 05:32:24;;;;;;;2.55;1.20;;;-3.90;99.90;;;;;;5033859;28;20040;-75
2021/12/25 05:34:50;;;;;;;5.68;1.00;;;-3.90;99.90;;;;;;5050497;28;20117;-75
2021/12/25 05:37:16;;;;;;;0.80;0.80;;;-3.90;99.90;;;;;;5032517;28;20055;-75
2021/12/25 05:39:49;;;;;;;0.77;0.77;;;-3.90;99.90;;;;;;5049091;28;20075;-75
2021/12/25 05:42:15;;;;;;;0.88;0.88;;;-3.90;99.90;;;;;;5031866;28;20077;-76
2021/12/25 05:44:41;;;;;;;0.60;0.60;;;-3.90;99.90;;;;;;5034034;28;20071;-75
2021/12/25 05:47:07;;;;;;;1.08;1.08;;;-3.90;99.90;;;;;;5033095;28;20111;-74
2021/12/25 05:49:33;;;;;;;0.80;0.80;;;-3.90;99.90;;;;;;5065164;28;20041;-74
2021/12/25 05:51:58;;;;;;;1.73;0.90;;;-3.90;99.90;;;;;;5032825;28;20425;-75
2021/12/25 05:54:24;;;;;;;2.63;0.75;;;-3.90;99.90;;;;;;5066063;28;20075;-75
2021/12/25 05:56:50;;;;;;;1.00;0.73;;;-3.90;99.90;;;;;;5032459;28;20076;-75
2021/12/25 05:59:15;;;;;;;1.65;1.13;;;-4.00;99.90;;;;;;5048268;28;20465;-75
2021/12/25 06:01:41;;;;;;;0.85;0.85;;;-4.00;99.90;;;;;;5050048;28;20051;-74
2021/12/25 06:04:07;;;;;;;2.53;0.95;;;-4.00;99.90;;;;;;5047984;28;20045;-75
2021/12/25 06:06:33;;;;;;;0.70;0.70;;;-4.10;99.90;;;;;;5031515;28;20068;-75
2021/12/25 06:08:59;;;;;;;0.75;0.75;;;-4.10;99.90;;;;;;5083504;28;20037;-75
2021/12/25 06:11:25;;;;;;;1.10;0.70;;;-4.10;99.90;;;;;;5049897;28;20048;-75
2021/12/25 06:14:08;;;;;;;0.90;0.90;;;-4.10;99.90;;;;;;5046281;28;20057;-75
2021/12/25 06:16:34;;;;;;;2.00;1.45;;;-4.10;99.90;;;;;;5081025;28;20098;-74
2021/12/25 06:19:00;;;;;;;1.13;1.02;;;-4.10;99.90;;;;;;5049654;28;20044;-74
2021/12/25 06:21:25;;;;;;;1.20;1.10;;;-4.10;99.90;;;;;;5048504;28;20048;-74
2021/12/25 06:23:51;;;;;;;1.17;0.95;;;-4.20;99.90;;;;;;5065562;28;20109;-74
2021/12/25 06:26:17;;;;;;;1.52;0.73;;;-4.20;99.90;;;;;;5066002;28;20041;-74
2021/12/25 06:28:43;;;;;;;0.80;0.80;;;-4.20;99.90;;;;;;5032467;28;20052;-74
2021/12/25 06:31:08;;;;;;;0.85;0.82;;;-4.20;99.90;;;;;;5045529;28;20052;-74
2021/12/25 06:33:34;;;;;;;1.10;1.00;;;-4.20;99.90;;;;;;5071385;28;20049;-74
2021/12/25 06:36:00;;;;;;;0.90;0.90;;;-4.20;99.90;;;;;;5047397;28;20075;-74
2021/12/25 06:38:25;;;;;;;0.77;0.77;;;-4.20;99.90;;;;;;5082560;28;20045;-74
2021/12/25 06:40:51;;;;;;;0.90;0.90;;;-4.20;99.90;;;;;;5048646;28;20107;-74
2021/12/25 06:43:17;;;;;;;0.90;0.90;;;-4.30;99.90;;;;;;5049310;28;20041;-74
2021/12/25 06:45:42;;;;;;;2.30;1.10;;;-4.30;99.90;;;;;;5043861;28;20063;-74
2021/12/25 06:48:08;;;;;;;1.00;0.77;;;-4.30;99.90;;;;;;5047530;28;20075;-74
2021/12/25 06:50:34;;;;;;;1.40;1.35;;;-4.30;99.90;;;;;;5048607;28;20052;-74
2021/12/25 06:53:00;;;;;;;2.95;1.40;;;-4.30;99.90;;;;;;5033186;28;20076;-74
2021/12/25 06:55:25;;;;;;;2.92;1.42;;;-4.30;99.90;;;;;;5046379;28;20124;-74
2021/12/25 06:57:55;;;;;;;0.90;0.90;;;-4.40;99.90;;;;;;5046790;28;20461;-74
2021/12/25 07:00:23;;;;;;;3.97;1.10;;;-4.30;99.90;;;;;;5047355;28;20060;-74
2021/12/25 07:02:49;;;;;;;0.80;0.80;;;-4.30;99.90;;;;;;5047867;28;20478;-74
2021/12/25 07:05:16;;;;;;;0.60;0.60;;;-4.30;99.90;;;;;;5045019;28;20460;-74
2021/12/25 07:07:43;;;;;;;2.38;1.17;;;-4.40;99.90;;;;;;5030996;28;20049;-73
2021/12/25 07:10:09;;;;;;;0.93;0.85;;;-4.40;99.90;;;;;;5046980;28;20091;-74
2021/12/25 07:12:37;;;;;;;2.75;1.30;;;-4.50;99.90;;;;;;5030245;28;20076;-74
2021/12/25 07:15:07;;;;;;;0.85;0.85;;;-4.40;99.90;;;;;;5049816;28;20473;-74
2021/12/25 07:17:33;;;;;;;0.60;0.60;;;-4.40;99.90;;;;;;5049416;28;20106;-73
2021/12/25 07:19:59;;;;;;;1.20;0.63;;;-4.40;99.90;;;;;;5053596;28;20067;-73
2021/12/25 07:22:25;;;;;;;0.80;0.80;;;-4.40;99.90;;;;;;5032323;28;20470;-74
2021/12/25 07:24:51;;;;;;;1.00;1.00;;;-4.40;99.90;;;;;;5048562;28;20075;-73
2021/12/25 07:27:17;;;;;;;2.40;1.50;;;-4.40;99.90;;;;;;5049096;28;20052;-74
2021/12/25 07:29:42;;;;;;;2.08;1.40;;;-4.40;99.90;;;;;;5077929;28;20124;-73
2021/12/25 07:32:08;;;;;;;1.98;1.35;;;-4.40;99.90;;;;;;5047146;28;20045;-73
2021/12/25 07:34:36;;;;;;;7.95;2.08;;;-4.40;99.90;;;;;;5048089;28;20040;-73
2021/12/25 07:37:03;;;;;;;2.55;1.92;;;-4.40;99.90;;;;;;5044400;28;20049;-74
2021/12/25 07:39:29;;;;;;;1.00;1.00;;;-4.40;99.90;;;;;;5047330;28;20044;-73
2021/12/25 07:41:55;;;;;;;3.75;1.00;;;-4.40;99.90;;;;;;5047350;28;20095;-74
2021/12/25 07:44:21;;;;;;;1.25;1.15;;;-4.40;99.90;;;;;;5081031;28;20045;-73
2021/12/25 07:46:47;;;;;;;1.00;1.00;;;-4.40;99.90;;;;;;5047805;28;20043;-74
2021/12/25 07:49:18;;;;;;;2.85;1.90;;;-4.40;99.90;;;;;;5046218;28;20408;-74
2021/12/25 07:51:44;;;;;;;4.13;1.77;;;-4.40;99.90;;;;;;5048090;28;20695;-73
2021/12/25 07:54:10;;;;;;;1.92;1.73;;;-4.40;99.90;;;;;;5049983;28;20083;-73
2021/12/25 07:56:36;;;;;;;1.77;1.45;;;-4.40;99.90;;;;;;5044544;28;20065;-73
2021/12/25 07:59:03;;;;;;;8.68;1.80;;;-4.40;99.90;;;;;;5020013;28;20529;-73
2021/12/25 08:01:31;;;;;;;3.03;1.33;;;-4.30;99.90;;;;;;5027128;28;20040;-73
2021/12/25 08:03:56;;;;;;;7.78;1.63;;;-4.30;99.90;;;;;;5031851;28;20115;-73
2021/12/25 08:06:22;;;;;;;0.80;0.80;;;-4.40;99.90;;;;;;5023629;28;20128;-73
2021/12/25 08:08:50;;;;;;;1.35;1.25;;;-4.40;99.90;;;;;;5048556;28;20413;-73
2021/12/25 08:11:16;;;;;;;1.10;1.10;;;-4.40;99.90;;;;;;5031770;28;20729;-73
2021/12/25 08:13:41;;;;;;;4.18;1.33;;;-4.30;99.90;;;;;;5047603;28;20082;-73
2021/12/25 08:16:07;;;;;;;0.88;0.88;;;-4.20;99.90;;;;;;5045906;28;20037;-73
2021/12/25 08:18:33;;;;;;;1.23;1.17;;;-4.20;99.90;;;;;;5080776;28;20033;-73
2021/12/25 08:20:59;;;;;;;1.50;1.25;;;-4.20;99.90;;;;;;5080139;28;20057;-73
2021/12/25 08:23:25;;;;;;;1.95;1.25;;;-4.10;99.90;;;;;;5066015;28;20067;-73
2021/12/25 08:25:51;;;;;;;1.27;1.13;;;-4.10;99.90;;;;;;5030358;28;20500;-73
2021/12/25 08:28:17;;;;;;;2.40;1.30;;;-4.00;99.90;;;;;;5028057;28;20401;-73
2021/12/25 08:30:43;;;;;;;2.72;0.98;;;-3.80;99.90;;;;;;5077483;28;20044;-74
2021/12/25 08:33:08;;;;;;;1.27;0.90;;;-3.80;99.90;;;;;;5046493;28;20519;-73
2021/12/25 08:35:34;;;;;;;5.78;1.63;;;-3.60;99.90;;;;;;5044627;28;20123;-73
2021/12/25 08:38:00;;;;;;;3.60;0.75;;;-3.50;99.90;;;;;;5030444;28;20044;-74
2021/12/25 08:40:26;;;;;;;1.38;1.15;;;-3.20;99.90;;;;;;5046842;28;20065;-73
2021/12/25 08:42:58;;;;;;;0.95;0.85;;;-3.00;99.90;;;;;;5046274;28;20091;-73
2021/12/25 08:45:45;;;;;;;2.45;1.00;;;-2.80;99.90;;;;;;5044100;28;20045;-74
2021/12/25 08:48:16;;;;;;;2.03;0.95;;;-2.40;99.90;;;;;;5029730;28;20120;-74
2021/12/25 08:50:45;;;;;;;1.17;1.00;;;-2.20;99.90;;;;;;5079810;28;20040;-74
2021/12/25 08:53:11;;;;;;;1.25;1.15;;;-2.00;99.90;;;;;;5046091;28;20125;-74
2021/12/25 08:55:37;;;;;;;2.63;1.02;;;-1.80;99.90;;;;;;5046462;28;20120;-75
2021/12/25 08:58:03;;;;;;;1.20;1.00;;;-1.60;99.90;;;;;;5044494;28;20029;-74
2021/12/25 09:00:28;;;;;;;0.70;0.70;;;-1.50;99.90;;;;;;5078653;28;20063;-75
2021/12/25 09:02:54;;;;;;;0.73;0.73;;;-1.30;99.90;;;;;;5030830;28;20047;-75
2021/12/25 09:05:21;;;;;;;1.33;1.23;;;-1.20;99.90;;;;;;5045976;28;20440;-75
2021/12/25 09:07:47;;;;;;;2.30;1.02;;;-1.20;99.90;;;;;;5029586;28;20469;-75
2021/12/25 09:10:13;;;;;;;0.57;0.57;;;-1.20;99.90;;;;;;5064065;28;20490;-75
2021/12/25 09:12:43;;;;;;;2.10;1.10;;;-1.10;99.90;;;;;;5046665;28;20041;-75
2021/12/25 09:15:10;;;;;;;2.90;1.17;;;-1.00;99.90;;;;;;5044547;28;20044;-75
2021/12/25 09:17:36;;;;;;;2.08;1.10;;;-1.00;99.90;;;;;;5045555;28;20417;-75
2021/12/25 09:20:04;;;;;;;0.93;0.93;;;-0.90;99.90;;;;;;5046319;28;20120;-76
2021/12/25 09:22:30;;;;;;;0.52;0.52;;;-1.00;99.90;;;;;;5027249;28;20037;-76
2021/12/25 09:24:56;;;;;;;1.63;1.27;;;-0.90;99.90;;;;;;5086058;28;20497;-76
2021/12/25 09:27:21;;;;;;;1.77;1.20;;;-0.90;99.90;;;;;;5080056;28;20048;-76
2021/12/25 09:29:48;;;;;;;0.68;0.68;;;-0.80;99.90;;;;;;5081151;28;20401;-76
2021/12/25 09:32:14;;;;;;;4.05;0.93;;;-0.80;99.90;;;;;;5033463;28;20047;-77
2021/12/25 09:34:40;;;;;;;1.35;0.90;;;-0.80;99.90;;;;;;5080918;28;20564;-77
2021/12/25 09:37:06;;;;;;;2.47;0.80;;;-0.80;99.90;;;;;;5052718;28;20128;-77
2021/12/25 09:39:33;;;;;;;0.85;0.85;;;-0.80;99.90;;;;;;5049910;28;20133;-77
2021/12/25 09:41:59;;;;;;;10.50;0.90;;;-0.80;99.90;;;;;;5033763;28;20527;-76
2021/12/25 09:44:26;;;;;;;2.00;1.23;;;-0.90;99.90;;;;;;5048558;28;20037;-77
2021/12/25 09:46:52;;;;;;;2.15;1.20;;;-0.90;99.90;;;;;;5032226;28;20063;-77
2021/12/25 09:49:18;;;;;;;3.67;1.25;;;-0.90;99.90;;;;;;5047796;28;20133;-77
2021/12/25 09:51:44;;;;;;;2.92;1.10;;;-1.00;99.90;;;;;;5049973;28;20147;-76
2021/12/25 09:54:14;;;;;;;1.83;1.25;;;-1.00;99.90;;;;;;5082852;28;20375;-77
2021/12/25 09:56:42;;;;;;;0.98;0.90;;;-1.10;99.90;;;;;;5047652;28;20052;-77
2021/12/25 09:59:10;;;;;;;1.17;0.88;;;-1.10;99.90;;;;;;5033760;28;20126;-77
2021/12/25 10:01:45;;;;;;;2.10;0.93;;;-1.20;99.90;;;;;;5062015;28;20064;-76
2021/12/25 10:04:29;;;;;;;6.18;1.20;;;-1.20;99.90;;;;;;5048867;28;20139;-76
2021/12/25 10:06:56;;;;;;;1.55;0.95;;;-1.20;99.90;;;;;;5047065;28;20055;-76
2021/12/25 10:09:24;;;;;;;3.50;1.10;;;-1.20;99.90;;;;;;5063377;28;20056;-77
2021/12/25 10:12:08;;;;;;;1.95;1.15;;;-1.20;99.90;;;;;;5048726;28;20049;-76
2021/12/25 10:14:35;;;;;;;3.97;1.33;;;-1.20;99.90;;;;;;5049251;28;20094;-77
2021/12/25 10:17:21;;;;;;;2.75;1.30;;;-1.20;99.90;;;;;;5031288;28;20123;-76
2021/12/25 10:20:08;;;;;;;5.05;1.38;;;-1.20;99.90;;;;;;5052036;28;20072;-76
2021/12/25 10:22:54;;;;;;;2.28;1.08;;;-1.20;99.90;;;;;;5048266;28;20036;-76
2021/12/25 10:25:19;;;;;;;0.77;0.77;;;-1.20;99.90;;;;;;5066818;28;20404;-76
2021/12/25 10:27:55;;;;;;;0.73;0.73;;;-1.20;99.90;;;;;;5083685;28;20045;-76
2021/12/25 10:30:22;;;;;;;1.23;1.05;;;-1.20;99.90;;;;;;5032982;28;20050;-76
2021/12/25 10:32:48;;;;;;;1.63;0.90;;;-1.20;99.90;;;;;;5058395;28;20041;-76
2021/12/25 10:35:25;;;;;;;0.77;0.77;;;-1.20;99.90;;;;;;5020635;28;20052;-76
2021/12/25 10:37:52;;;;;;;1.15;1.10;;;-1.10;99.90;;;;;;5051055;28;20045;-76
2021/12/25 10:40:27;;;;;;;2.55;1.30;;;-1.10;99.90;;;;;;5047790;28;20098;-76
2021/12/25 10:42:55;;;;;;;7.85;1.45;;;-1.10;99.90;;;;;;5048228;28;20045;-76
2021/12/25 10:45:22;;;;;;;0.80;0.80;;;-1.10;99.90;;;;;;5032435;28;20520;-76
2021/12/25 10:48:02;;;;;;;0.95;0.77;;;-1.00;99.90;;;;;;5043293;28;20631;-76
2021/12/25 10:50:34;;;;;;;0.98;0.75;;;-0.90;99.90;;;;;;5031927;28;20146;-76
2021/12/25 10:53:04;;;;;;;2.53;1.63;;;-0.90;99.90;;;;;;5050433;28;20072;-76
2021/12/25 10:55:30;;;;;;;1.77;1.45;;;-0.90;99.90;;;;;;5030308;28;20065;-76
2021/12/25 10:57:58;;;;;;;1.23;1.00;;;-0.90;99.90;;;;;;5028625;28;20454;-76
2021/12/25 11:00:30;;;;;;;1.85;1.05;;;-0.90;99.90;;;;;;5027018;28;20366;-75
2021/12/25 11:03:06;;;;;;;0.75;0.65;;;-0.90;99.90;;;;;;5044223;28;20394;-76
2021/12/25 11:05:35;;;;;;;1.92;1.20;;;-0.80;99.90;;;;;;5037600;28;20048;-75
2021/12/25 11:08:02;;;;;;;0.90;0.90;;;-0.70;99.90;;;;;;5038779;28;20378;-76
2021/12/25 11:10:31;;;;;;;1.65;0.90;;;-0.70;99.90;;;;;;5033018;28;20124;-75
2021/12/25 11:12:58;;;;;;;0.52;0.52;;;-0.70;99.90;;;;;;5048298;28;20068;-75
2021/12/25 11:15:27;;;;;;;1.05;1.00;;;-0.80;99.90;;;;;;5042069;28;20056;-76
2021/12/25 11:18:04;;;;;;;3.53;1.20;;;-0.70;99.90;;;;;;5028074;28;20041;-75
2021/12/25 11:20:42;;;;;;;1.38;1.15;;;-0.70;99.90;;;;;;5020913;28;20037;-76
2021/12/25 11:23:10;;;;;;;2.03;1.20;;;-0.70;99.90;;;;;;5026273;28;20433;-76
2021/12/25 11:25:38;;;;;;;0.70;0.70;;;-0.70;99.90;;;;;;5058153;28;20045;-76
2021/12/25 11:28:07;;;;;;;3.20;1.70;;;-0.60;99.90;;;;;;5047527;28;20056;-76
2021/12/25 11:30:37;;;;;;;6.55;1.05;;;-0.60;99.90;;;;;;5038894;28;20038;-76
2021/12/25 11:33:04;;;;;;;1.00;0.90;;;-0.60;99.90;;;;;;5029000;28;20507;-75
2021/12/25 11:35:34;;;;;;;0.98;0.70;;;-0.60;99.90;;;;;;5048427;28;20037;-76
2021/12/25 11:38:01;;;;;;;0.70;0.70;;;-0.50;99.90;;;;;;5047462;28;20048;-76
2021/12/25 11:40:28;;;;;;;1.25;1.15;;;-0.50;99.90;;;;;;5029358;28;20048;-76
2021/12/25 11:42:57;;;;;;;3.00;1.08;;;-0.50;99.90;;;;;;5028201;28;20052;-76
2021/12/25 11:45:36;;;;;;;1.48;1.00;;;-0.40;99.90;;;;;;5047415;28;20504;-76
2021/12/25 11:48:23;;;;;;;2.17;1.08;;;-0.40;99.90;;;;;;5049727;28;20436;-76
2021/12/25 11:50:51;;;;;;;2.90;1.20;;;-0.30;99.90;;;;;;5034717;28;20524;-76
2021/12/25 11:53:25;;;;;;;1.48;1.20;;;-0.40;99.90;;;;;;5030847;28;20497;-76
2021/12/25 11:58:43;;;;;;;2.13;1.10;;;-0.40;99.90;;;;;;5077505;28;20037;-75
2021/12/25 12:01:30;;;;;;;4.50;0.90;;;-0.40;99.90;;;;;;5050184;28;20714;-76
2021/12/25 12:03:57;;;;;;;8.88;1.27;;;-0.30;99.90;;;;;;5048276;28;20079;-76
2021/12/25 12:06:44;;;;;;;2.05;0.85;;;-0.30;99.90;;;;;;5044460;28;20437;-76
2021/12/25 12:09:12;;;;;;;1.08;1.00;;;-0.30;99.90;;;;;;5028866;28;20048;-76
2021/12/25 12:11:40;;;;;;;9.40;1.45;;;-0.20;99.90;;;;;;5027166;28;20393;-76
2021/12/25 12:14:15;;;;;;;0.80;0.80;;;-0.10;99.90;;;;;;5047845;28;20454;-76
2021/12/25 12:16:48;;;;;;;1.75;1.00;;;-0.20;99.90;;;;;;5045525;28;20055;-76
2021/12/25 12:19:37;;;;;;;0.90;0.90;;;-0.30;99.90;;;;;;5078563;28;20049;-77
2021/12/25 12:22:15;;;;;;;2.72;0.90;;;-0.20;99.90;;;;;;5030326;28;20493;-76
2021/12/25 12:25:01;;;;;;;1.52;1.00;;;-0.20;99.90;;;;;;5053634;28;20044;-76
2021/12/25 12:27:33;;;;;;;2.05;1.33;;;-0.20;99.90;;;;;;5032684;28;20409;-76
2021/12/25 12:29:59;;;;;;;1.52;1.13;;;-0.20;99.90;;;;;;5051725;28;20044;-77
2021/12/25 12:32:53;;;;;;;0.88;0.85;;;-0.20;99.90;;;;;;5048346;28;20507;-76
2021/12/25 12:35:34;;;;;;;1.90;1.15;;;-0.20;99.90;;;;;;5022452;28;20163;-76
2021/12/25 12:38:55;;;;;;;3.70;1.30;;;-0.20;99.90;;;;;;5033288;28;20048;-76
2021/12/25 12:41:38;;;;;;;3.03;1.25;;;-0.20;99.90;;;;;;5034806;28;20102;-76
2021/12/25 12:44:14;;;;;;;;;;;-0.30;99.90;;;;;;5076926;28;20041;-76
2021/12/25 12:46:50;;;;;;;2.45;1.02;;;-0.30;99.90;;;;;;5028837;28;19921;-76
2021/12/25 12:49:24;;;;;;;2.33;1.25;;;-0.30;99.90;;;;;;5048579;28;20131;-77
2021/12/25 12:52:11;;;;;;;0.45;0.45;;;-0.30;99.90;;;;;;5076488;28;20045;-76
2021/12/25 12:54:42;;;;;;;2.90;1.15;;;-0.40;99.90;;;;;;5062180;28;20397;-77
2021/12/25 12:57:08;;;;;;;1.52;1.17;;;-0.40;99.90;;;;;;5025481;28;20562;-77
2021/12/25 12:59:44;;;;;;;1.00;0.90;;;-0.50;99.90;;;;;;5048122;28;20040;-77
2021/12/25 13:02:12;;;;;;;1.08;0.93;;;-0.50;99.90;;;;;;5056880;28;20052;-76
2021/12/25 13:04:47;;;;;;;2.65;1.35;;;-0.60;99.90;;;;;;5066993;28;20404;-77
2021/12/25 13:07:15;;;;;;;0.90;0.90;;;-0.60;99.90;;;;;;5047341;28;20033;-77
2021/12/25 13:09:48;;;;;;;0.80;0.80;;;-0.60;99.90;;;;;;5047972;28;20040;-77
2021/12/25 13:12:31;;;;;;;1.30;1.15;;;-0.60;99.90;;;;;;5035019;28;20049;-77
2021/12/25 13:15:03;;;;;;;1.17;1.08;;;-0.60;99.90;;;;;;5030999;28;20101;-77
2021/12/25 13:17:29;;;;;;;1.70;1.13;;;-0.70;99.90;;;;;;5049175;28;20138;-77
2021/12/25 13:19:54;;;;;;;4.68;1.20;;;-0.70;99.90;;;;;;5049544;28;20488;-77
2021/12/25 13:22:21;;;;;;;5.20;1.30;;;-0.70;99.90;;;;;;5034085;28;20114;-76
2021/12/25 13:24:54;;;;;;;5.28;1.15;;;-0.70;99.90;;;;;;5052485;28;20291;-77
2021/12/25 13:27:19;;;;;;;1.00;0.93;;;-0.70;99.90;;;;;;5048592;28;20049;-77
2021/12/25 13:29:45;;;;;;;1.95;0.70;;;-0.70;99.90;;;;;;5031854;28;20048;-77
2021/12/25 13:32:11;;;;;;;1.08;0.98;;;-0.70;99.90;;;;;;5033028;28;20045;-76
2021/12/25 13:34:39;;;;;;;1.50;1.25;;;-0.70;99.90;;;;;;5032476;28;20044;-77
2021/12/25 13:37:13;;;;;;;0.68;0.68;;;-0.70;99.90;;;;;;5056901;28;20037;-77
2021/12/25 13:39:41;;;;;;;2.67;1.50;;;-0.70;99.90;;;;;;5033324;28;20191;-77
2021/12/25 13:42:12;;;;;;;3.40;1.58;;;-0.80;99.90;;;;;;5047361;28;20483;-77
2021/12/25 13:44:40;;;;;;;5.38;1.42;;;-0.80;99.90;;;;;;5047188;28;20041;-77
2021/12/25 13:47:15;;;;;;;1.75;1.45;;;-0.80;99.90;;;;;;5048716;28;20084;-77
2021/12/25 13:49:57;;;;;;;2.85;1.10;;;-0.80;99.90;;;;;;5051097;28;20053;-76
2021/12/25 13:52:38;;;;;;;1.23;1.10;;;-0.80;99.90;;;;;;5044933;28;20504;-77
2021/12/25 13:55:22;;;;;;;3.17;1.08;;;-0.80;99.90;;;;;;5063826;28;20053;-77
2021/12/25 13:57:55;;;;;;;;;;;-0.90;99.90;;;;;;5042024;28;20048;-77
2021/12/25 14:00:29;;;;;;;1.75;1.30;;;-0.90;99.90;;;;;;5048625;28;19999;-77
2021/12/25 14:03:02;;;;;;;1.85;1.50;;;-1.00;99.90;;;;;;5083675;28;20051;-77
2021/12/25 14:05:34;;;;;;;0.88;0.88;;;-1.00;99.90;;;;;;5045373;28;20073;-77
2021/12/25 14:08:00;;;;;;;2.55;1.30;;;-1.10;99.90;;;;;;5048894;28;20386;-77
2021/12/25 14:10:31;;;;;;;3.88;1.20;;;-1.10;99.90;;;;;;5031158;28;20250;-77
2021/12/25 14:13:00;;;;;;;1.52;1.00;;;-1.10;99.90;;;;;;5048203;28;20094;-77
2021/12/25 14:15:29;;;;;;;1.00;1.00;;;-1.10;99.90;;;;;;5046452;28;20057;-77
2021/12/25 14:17:56;;;;;;;1.90;1.20;;;-1.10;99.90;;;;;;5033501;28;20045;-77
2021/12/25 14:20:25;;;;;;;2.55;1.20;;;-1.10;99.90;;;;;;5048350;28;20128;-77